Time;durP1;ratioP1;P1;durP2;ratioP2;P2;SDS_P1;SDS_P2;PMS_P1;PMS_P2;Temp;Humidity;BMP_temperature;BMP_pressure;BME280_temperature;BME280_humidity;BME280_pressure;Samples;Min_cycle;Max_cycle;Signal;HPM_P1;HPM_P2
2022/11/05 00:09:42;;;;;;;0.70;0.70;;;;;;;14.08;100.00;99632.75;5056899;28;20277;-73
2022/11/05 00:17:43;;;;;;;0.80;0.80;;;;;;;14.02;100.00;99622.38;5059863;28;20210;-72
2022/11/05 00:20:12;;;;;;;0.80;0.80;;;;;;;14.05;100.00;99622.34;5062645;28;20308;-72
2022/11/05 00:25:23;;;;;;;0.73;0.73;;;;;;;13.91;100.00;99620.66;5059520;28;20271;-73
2022/11/05 00:27:51;;;;;;;0.80;0.80;;;;;;;13.94;100.00;99625.00;5061386;28;20206;-73
2022/11/05 00:30:21;;;;;;;0.80;0.80;;;;;;;14.02;100.00;99638.00;5070016;28;20198;-73
2022/11/05 00:32:50;;;;;;;0.77;0.77;;;;;;;14.03;100.00;99635.38;5069383;28;20206;-73
2022/11/05 00:35:17;;;;;;;13.05;1.65;;;;;;;13.97;100.00;99625.00;5092864;28;20205;-73
2022/11/05 00:37:44;;;;;;;0.70;0.70;;;;;;;13.97;100.00;99624.13;5112988;28;20688;-73
2022/11/05 00:40:12;;;;;;;0.88;0.88;;;;;;;14.11;100.00;99628.38;5105595;28;20222;-73
2022/11/05 00:45:27;;;;;;;0.70;0.70;;;;;;;14.21;100.00;99597.88;5064815;28;20209;-73
2022/11/05 00:50:38;;;;;;;0.70;0.70;;;;;;;14.35;100.00;99625.63;5111400;28;20270;-73
2022/11/05 00:53:06;;;;;;;0.80;0.80;;;;;;;14.47;100.00;99618.59;5082665;28;20201;-73
2022/11/05 00:55:36;;;;;;;0.77;0.77;;;;;;;14.68;100.00;99636.66;5096749;28;20289;-74
2022/11/05 00:58:05;;;;;;;0.63;0.63;;;;;;;14.76;100.00;99630.50;5112339;28;20204;-73
2022/11/05 01:00:35;;;;;;;1.40;1.30;;;;;;;14.78;100.00;99607.00;5111482;28;20613;-73
2022/11/05 01:03:04;;;;;;;0.70;0.70;;;;;;;14.99;100.00;99638.09;5092103;28;20194;-73
2022/11/05 01:05:32;;;;;;;0.70;0.70;;;;;;;15.06;100.00;99639.75;5107372;28;20695;-73
2022/11/05 01:08:00;;;;;;;0.90;0.90;;;;;;;14.51;100.00;99633.34;5092513;28;20231;-73
2022/11/05 01:10:27;;;;;;;0.80;0.80;;;;;;;14.14;100.00;99555.34;5091993;28;20201;-73
2022/11/05 01:12:54;;;;;;;0.90;0.90;;;;;;;14.48;100.00;99633.38;5096204;28;20714;-73
2022/11/05 01:15:21;;;;;;;0.73;0.73;;;;;;;14.52;100.00;99606.38;5104755;27;20190;-73
2022/11/05 01:17:50;;;;;;;0.80;0.80;;;;;;;14.50;100.00;99603.78;5102830;28;20197;-73
2022/11/05 01:20:17;;;;;;;0.70;0.70;;;;;;;14.36;100.00;99606.50;5111949;28;20221;-74
2022/11/05 01:22:44;;;;;;;0.80;0.80;;;;;;;14.38;100.00;99601.25;5111707;28;20205;-73
2022/11/05 01:25:11;;;;;;;0.90;0.90;;;;;;;14.44;100.00;99596.00;5110376;28;20209;-73
2022/11/05 01:27:38;;;;;;;0.77;0.77;;;;;;;14.45;100.00;99609.91;5098928;28;20608;-73
2022/11/05 01:30:07;;;;;;;0.88;0.88;;;;;;;14.34;100.00;99582.16;5111731;28;20687;-73
2022/11/05 01:32:35;;;;;;;0.70;0.70;;;;;;;14.60;100.00;99600.19;5111910;28;20201;-74
2022/11/05 01:35:04;;;;;;;0.80;0.80;;;;;;;14.60;100.00;99584.53;5097999;28;20226;-74
2022/11/05 01:37:31;;;;;;;0.70;0.70;;;;;;;14.65;100.00;99610.59;5066260;28;20201;-74
2022/11/05 01:39:57;;;;;;;0.80;0.80;;;;;;;14.67;100.00;99599.25;5106337;28;20689;-73
2022/11/05 01:42:26;;;;;;;0.77;0.77;;;;;;;14.69;100.00;99597.53;5105724;28;20670;-74
2022/11/05 01:44:56;;;;;;;0.80;0.80;;;;;;;14.74;100.00;99602.66;5089464;28;20722;-74
2022/11/05 01:47:32;;;;;;;0.90;0.90;;;;;;;14.56;100.00;99605.44;5091198;28;20225;-74
2022/11/05 01:50:02;;;;;;;1.00;1.00;;;;;;;14.48;100.00;99596.84;5099714;28;20213;-74
2022/11/05 01:52:35;;;;;;;0.77;0.77;;;;;;;14.21;100.00;99603.97;5103795;28;20211;-73
2022/11/05 01:55:03;;;;;;;0.70;0.70;;;;;;;14.10;100.00;99611.00;5110040;28;20221;-73
2022/11/05 01:57:32;;;;;;;1.05;1.05;;;;;;;13.96;100.00;99609.34;5107624;28;20189;-73
2022/11/05 02:00:01;;;;;;;0.93;0.93;;;;;;;13.70;100.00;99584.31;5096558;28;20225;-74
2022/11/05 02:02:30;;;;;;;0.80;0.80;;;;;;;13.57;100.00;99592.19;5111435;28;20257;-73
2022/11/05 02:05:03;;;;;;;0.90;0.90;;;;;;;13.69;100.00;99616.47;5098645;28;20697;-73
2022/11/05 02:07:32;;;;;;;0.70;0.70;;;;;;;13.53;100.00;99601.78;5095296;28;20246;-73
2022/11/05 02:10:02;;;;;;;0.80;0.80;;;;;;;13.57;100.00;99602.63;5107005;28;20669;-73
2022/11/05 02:12:30;;;;;;;0.80;0.80;;;;;;;13.53;100.00;99599.16;5055020;28;20197;-73
2022/11/05 02:14:57;;;;;;;0.77;0.77;;;;;;;13.30;100.00;99560.22;5092152;28;20263;-73
2022/11/05 02:17:37;;;;;;;0.93;0.93;;;;;;;13.54;100.00;99587.00;5091063;28;20562;-73
2022/11/05 02:20:21;;;;;;;0.80;0.80;;;;;;;13.41;100.00;99581.84;5091842;28;20218;-73
2022/11/05 02:23:19;;;;;;;0.70;0.70;;;;;;;13.50;100.00;99587.91;5094051;28;20301;-74
2022/11/05 02:26:14;;;;;;;0.95;0.95;;;;;;;13.41;100.00;99605.28;5063255;28;20194;-73
2022/11/05 02:29:05;;;;;;;0.70;0.70;;;;;;;13.34;100.00;99600.13;5068391;28;20214;-73
2022/11/05 02:31:39;;;;;;;0.80;0.80;;;;;;;13.17;100.00;99574.13;5068411;28;20202;-74
2022/11/05 02:34:14;;;;;;;1.58;1.58;;;;;;;13.10;100.00;99575.03;5068454;28;20659;-73
2022/11/05 02:36:49;;;;;;;0.82;0.82;;;;;;;12.98;100.00;99571.59;5068587;28;20561;-73
2022/11/05 02:39:31;;;;;;;2.38;1.77;;;;;;;12.80;100.00;99523.06;5077220;28;20199;-73
2022/11/05 02:42:11;;;;;;;0.82;0.82;;;;;;;13.08;100.00;99571.56;5038488;28;20275;-73
2022/11/05 02:44:44;;;;;;;0.93;0.93;;;;;;;13.05;100.00;99570.69;5088527;28;20213;-73
2022/11/05 02:47:21;;;;;;;1.05;1.05;;;;;;;12.97;100.00;99551.63;5086230;28;20201;-73
2022/11/05 02:49:53;;;;;;;1.00;1.00;;;;;;;12.55;100.00;99478.06;5084585;28;20231;-73
2022/11/05 02:52:27;;;;;;;0.80;0.80;;;;;;;12.97;100.00;99544.69;5077997;28;20202;-73
2022/11/05 02:54:59;;;;;;;0.70;0.70;;;;;;;13.24;100.00;99574.97;5071127;28;20202;-73
2022/11/05 02:57:29;;;;;;;1.40;1.30;;;;;;;13.13;100.00;99548.13;5089011;28;20643;-74
2022/11/05 03:00:06;;;;;;;0.73;0.73;;;;;;;13.31;100.00;99577.56;5071942;28;20261;-73
2022/11/05 03:02:35;;;;;;;0.95;0.95;;;;;;;13.20;100.00;99589.75;5090329;28;20655;-73
2022/11/05 03:05:03;;;;;;;0.90;0.90;;;;;;;13.12;100.00;99594.13;5089176;28;20218;-74
2022/11/05 03:07:44;;;;;;;1.00;1.00;;;;;;;13.26;100.00;99597.56;5077345;28;20297;-75
2022/11/05 03:10:39;;;;;;;1.30;1.30;;;;;;;13.12;100.00;99593.28;5094794;28;20197;-73
2022/11/05 03:13:16;;;;;;;0.80;0.80;;;;;;;13.17;100.00;99597.56;5084144;28;20194;-73
2022/11/05 03:15:58;;;;;;;0.82;0.82;;;;;;;13.06;100.00;99588.03;5094403;28;20205;-73
2022/11/05 03:18:34;;;;;;;0.70;0.70;;;;;;;13.10;100.00;99606.28;5039481;28;20289;-73
2022/11/05 03:21:05;;;;;;;0.80;0.80;;;;;;;13.01;100.00;99597.59;5031627;28;20223;-74
2022/11/05 03:23:40;;;;;;;0.68;0.68;;;;;;;12.93;100.00;99593.28;5031813;28;20215;-73
2022/11/05 03:26:16;;;;;;;3.40;2.55;;;;;;;12.59;100.00;99525.72;5053224;28;20200;-73
2022/11/05 03:28:48;;;;;;;1.00;1.00;;;;;;;12.81;100.00;99556.00;5031606;28;20207;-73
2022/11/05 03:31:17;;;;;;;0.80;0.80;;;;;;;12.98;100.00;99577.66;5045665;28;20204;-73
2022/11/05 03:33:48;;;;;;;0.85;0.85;;;;;;;12.44;100.00;99490.22;5051156;28;20204;-73
2022/11/05 03:36:19;;;;;;;0.70;0.70;;;;;;;12.87;100.00;99582.03;5034350;28;20207;-73
2022/11/05 03:38:51;;;;;;;0.70;0.70;;;;;;;12.83;100.00;99575.97;5035829;28;20291;-73
2022/11/05 03:41:21;;;;;;;0.80;0.80;;;;;;;12.72;100.00;99558.63;5031032;28;20282;-73
2022/11/05 03:43:52;;;;;;;0.70;0.70;;;;;;;12.84;100.00;99582.03;5097490;28;20594;-72
2022/11/05 03:46:24;;;;;;;0.70;0.70;;;;;;;12.75;100.00;99553.44;5102919;28;20202;-72
2022/11/05 03:48:55;;;;;;;1.45;1.35;;;;;;;12.95;100.00;99567.25;5097744;28;20206;-73
2022/11/05 03:51:32;;;;;;;0.77;0.77;;;;;;;12.71;100.00;99510.06;5094084;28;20263;-73
2022/11/05 03:54:02;;;;;;;0.80;0.80;;;;;;;12.97;100.00;99568.13;5094039;28;20256;-73
2022/11/05 03:56:35;;;;;;;0.80;0.80;;;;;;;13.00;100.00;99568.09;5097166;28;20197;-73
2022/11/05 03:59:03;;;;;;;0.80;0.80;;;;;;;12.89;100.00;99569.88;5111411;28;20209;-73
2022/11/05 04:01:30;;;;;;;1.45;1.45;;;;;;;12.82;100.00;99558.63;5101988;28;20661;-73
2022/11/05 04:03:58;;;;;;;0.80;0.80;;;;;;;12.90;100.00;99558.59;5077636;28;20248;-73
2022/11/05 04:14:39;;;;;;;10.15;1.95;;;;;;;12.92;100.00;99570.72;5073066;28;20210;-72
2022/11/05 04:17:08;;;;;;;0.70;0.70;;;;;;;13.02;100.00;99578.53;5075387;28;20195;-73
2022/11/05 04:25:07;;;;;;;0.70;0.70;;;;;;;12.99;100.00;99571.56;5099543;28;20345;-73
2022/11/05 04:27:34;;;;;;;4.40;2.60;;;;;;;13.01;100.00;99595.88;5100603;28;20201;-73
2022/11/05 04:30:19;;;;;;;0.60;0.60;;;;;;;12.90;100.00;99585.50;5112609;28;20197;-73
2022/11/05 04:32:57;;;;;;;1.00;1.00;;;;;;;12.88;100.00;99542.09;5112630;28;20202;-73
2022/11/05 04:35:25;;;;;;;0.80;0.80;;;;;;;13.10;100.00;99588.06;5094413;28;20209;-73
2022/11/05 04:37:53;;;;;;;0.90;0.90;;;;;;;13.00;100.00;99588.91;5093075;28;20205;-73
2022/11/05 04:40:20;;;;;;;0.80;0.80;;;;;;;12.87;100.00;99592.44;5092720;28;20209;-73
2022/11/05 04:42:46;;;;;;;0.80;0.80;;;;;;;12.87;100.00;99600.25;5101631;28;20198;-72
2022/11/05 04:45:13;;;;;;;0.80;0.80;;;;;;;12.95;100.00;99606.28;5096375;28;20669;-73
2022/11/05 04:47:40;;;;;;;0.80;0.80;;;;;;;13.01;100.00;99603.66;5091919;28;20209;-73
2022/11/05 04:50:09;;;;;;;1.05;1.05;;;;;;;12.78;100.00;99576.81;5093608;28;20202;-73
2022/11/05 04:52:37;;;;;;;0.82;0.82;;;;;;;12.61;100.00;99556.06;5092567;28;20206;-73
2022/11/05 04:55:04;;;;;;;0.75;0.75;;;;;;;12.82;100.00;99597.63;5093722;28;20244;-73
2022/11/05 04:57:31;;;;;;;0.90;0.90;;;;;;;12.66;100.00;99588.13;5097071;28;20193;-73
2022/11/05 04:59:58;;;;;;;0.80;0.80;;;;;;;12.71;100.00;99609.78;5090618;28;20190;-73
2022/11/05 05:02:25;;;;;;;0.80;0.80;;;;;;;12.65;100.00;99595.94;5091897;28;20228;-73
2022/11/05 05:04:52;;;;;;;1.00;1.00;;;;;;;12.71;100.00;99611.53;5094299;28;20575;-73
2022/11/05 05:07:19;;;;;;;1.35;1.25;;;;;;;12.75;100.00;99610.66;5092341;28;20248;-73
2022/11/05 05:09:47;;;;;;;0.70;0.70;;;;;;;12.78;100.00;99608.03;5071654;28;20213;-73
2022/11/05 05:12:14;;;;;;;1.00;1.00;;;;;;;12.55;100.00;99597.69;5089502;28;20631;-72
2022/11/05 05:14:40;;;;;;;0.70;0.70;;;;;;;12.52;100.00;99594.22;5106429;28;20204;-73
2022/11/05 05:17:07;;;;;;;0.60;0.60;;;;;;;12.57;100.00;99613.28;5111799;28;20197;-74
2022/11/05 05:21:37;;;;;;;0.80;0.80;;;;;;;12.59;100.00;99621.97;5111259;28;20568;-72
2022/11/05 05:22:20;;;;;;;0.90;0.90;;;;;;;12.57;100.00;99608.06;5091806;28;20248;-72
2022/11/05 05:24:48;;;;;;;0.90;0.90;;;;;;;12.69;100.00;99608.06;5095527;28;20193;-72
2022/11/05 05:27:15;;;;;;;1.30;1.30;;;;;;;12.76;100.00;99625.41;5092177;28;20198;-73
2022/11/05 05:29:41;;;;;;;0.80;0.80;;;;;;;12.84;100.00;99629.69;5106351;28;20209;-72
2022/11/05 05:32:09;;;;;;;0.90;0.90;;;;;;;13.00;100.00;99630.56;5111921;28;20711;-72
2022/11/05 05:34:36;;;;;;;0.80;0.80;;;;;;;12.86;100.00;99627.13;5111997;28;20193;-73
2022/11/05 05:37:03;;;;;;;0.98;0.98;;;;;;;12.84;100.00;99634.91;5075809;28;20208;-73
2022/11/05 05:39:29;;;;;;;1.33;1.33;;;;;;;13.02;100.00;99646.19;5057131;28;20202;-74
2022/11/05 05:41:58;;;;;;;1.45;1.45;;;;;;;13.31;100.00;99652.19;5055598;28;20226;-75
2022/11/05 05:44:24;;;;;;;0.80;0.80;;;;;;;13.28;100.00;99657.41;5094877;28;20209;-74
2022/11/05 05:46:53;;;;;;;0.82;0.82;;;;;;;13.49;100.00;99646.06;5076674;28;20834;-72
2022/11/05 05:49:20;;;;;;;0.70;0.70;;;;;;;13.46;100.00;99666.91;5037689;28;20198;-72
2022/11/05 05:51:48;;;;;;;0.70;0.70;;;;;;;13.80;100.00;99658.09;5074753;28;20202;-71
2022/11/05 05:54:15;;;;;;;0.70;0.70;;;;;;;13.36;100.00;99604.47;5091472;28;20210;-73
2022/11/05 05:56:43;;;;;;;0.98;0.98;;;;;;;13.96;100.00;99670.16;5094710;28;21014;-73
2022/11/05 05:59:12;;;;;;;0.90;0.90;;;;;;;14.23;100.00;99664.78;5091071;28;20286;-73
2022/11/05 06:01:38;;;;;;;0.70;0.70;;;;;;;13.90;100.00;99651.97;5087079;28;20657;-73
2022/11/05 06:04:05;;;;;;;0.80;0.80;;;;;;;13.99;100.00;99648.41;5049055;28;20230;-72
2022/11/05 06:06:32;;;;;;;0.73;0.73;;;;;;;14.10;100.00;99691.81;5076361;28;20207;-73
2022/11/05 06:08:59;;;;;;;0.70;0.70;;;;;;;13.50;100.00;99663.41;5076686;28;20205;-72
2022/11/05 06:11:26;;;;;;;1.50;1.48;;;;;;;13.65;100.00;99690.28;5082006;28;20209;-72
2022/11/05 06:13:53;;;;;;;1.67;1.58;;;;;;;13.55;100.00;99666.91;5084600;28;20218;-71
2022/11/05 06:16:21;;;;;;;1.23;1.23;;;;;;;13.79;100.00;99701.53;5078798;28;20202;-72
2022/11/05 06:18:48;;;;;;;0.80;0.80;;;;;;;13.85;100.00;99705.84;5065359;28;20635;-72
2022/11/05 06:21:16;;;;;;;0.70;0.70;;;;;;;14.02;100.00;99705.78;5093080;28;20591;-70
2022/11/05 06:23:44;;;;;;;1.15;1.15;;;;;;;14.10;100.00;99704.84;5099329;28;20197;-74
2022/11/05 06:26:13;;;;;;;0.70;0.70;;;;;;;14.49;100.00;99700.28;5054874;28;20209;-71
2022/11/05 06:28:41;;;;;;;0.82;0.82;;;;;;;14.52;100.00;99716.78;5054604;28;20205;-71
2022/11/05 06:31:08;;;;;;;0.80;0.80;;;;;;;14.64;100.00;99723.66;5092820;28;20201;-72
2022/11/05 06:33:37;;;;;;;0.60;0.60;;;;;;;14.79;100.00;99726.16;5091666;28;20209;-72
2022/11/05 06:36:05;;;;;;;0.70;0.70;;;;;;;14.85;100.00;99720.88;5054517;28;20666;-73
2022/11/05 06:38:34;;;;;;;0.70;0.70;;;;;;;14.79;100.00;99724.44;5081332;28;20205;-73
2022/11/05 06:41:02;;;;;;;0.70;0.70;;;;;;;14.89;100.00;99726.09;5090056;28;20225;-71
2022/11/05 06:43:29;;;;;;;0.90;0.90;;;;;;;15.39;100.00;99696.00;5081393;28;20198;-74
2022/11/05 06:45:57;;;;;;;1.10;1.00;;;;;;;15.41;100.00;99704.69;5079763;28;20656;-72
2022/11/05 06:48:24;;;;;;;1.95;1.65;;;;;;;15.59;100.00;99716.75;5073493;28;20213;-72
2022/11/05 06:50:53;;;;;;;0.77;0.77;;;;;;;16.02;100.00;99725.78;5051008;28;20229;-71
2022/11/05 06:53:19;;;;;;;1.17;1.17;;;;;;;15.88;100.00;99723.34;5083178;28;20198;-71
2022/11/05 06:55:47;;;;;;;0.85;0.85;;;;;;;16.03;100.00;99731.88;5081428;28;20207;-68
2022/11/05 06:58:15;;;;;;;2.85;1.60;;;;;;;16.24;100.00;99732.47;5089667;28;20247;-71
2022/11/05 07:00:41;;;;;;;0.90;0.90;;;;;;;16.05;100.00;99696.13;5078961;28;20689;-72
2022/11/05 07:03:10;;;;;;;0.70;0.70;;;;;;;16.37;100.00;99723.56;5078313;28;20245;-71
2022/11/05 07:05:42;;;;;;;1.00;1.00;;;;;;;16.10;100.00;99704.75;5079374;28;20614;-72
2022/11/05 07:08:10;;;;;;;0.70;0.70;;;;;;;16.37;100.00;99714.88;5050799;28;20214;-71
2022/11/05 07:10:37;;;;;;;0.80;0.80;;;;;;;16.48;100.00;99714.72;5089514;28;20206;-71
2022/11/05 07:13:03;;;;;;;0.98;0.98;;;;;;;16.35;100.00;99712.25;5090214;28;20202;-72
2022/11/05 07:15:30;;;;;;;0.70;0.70;;;;;;;16.16;100.00;99700.31;5053828;28;20641;-72
2022/11/05 07:17:58;;;;;;;0.70;0.70;;;;;;;16.46;100.00;99713.84;5097274;28;20209;-72
2022/11/05 07:20:26;;;;;;;0.90;0.90;;;;;;;16.55;98.76;99716.34;5109943;28;20284;-72
2022/11/05 07:23:01;;;;;;;1.48;1.38;;;;;;;16.40;100.00;99703.50;5109892;28;20225;-72
2022/11/05 07:25:29;;;;;;;0.60;0.60;;;;;;;16.48;100.00;99710.31;5109794;28;20321;-72
2022/11/05 07:27:56;;;;;;;1.13;1.13;;;;;;;16.33;100.00;99703.59;5110299;28;20729;-72
2022/11/05 07:30:23;;;;;;;0.80;0.80;;;;;;;16.32;100.00;99707.06;5110130;28;20201;-72
2022/11/05 07:32:50;;;;;;;1.23;1.23;;;;;;;16.29;100.00;99690.56;5109999;28;20201;-72
2022/11/05 07:35:17;;;;;;;0.70;0.70;;;;;;;16.42;99.37;99694.72;5074167;28;20198;-72
2022/11/05 07:37:44;;;;;;;1.13;1.13;;;;;;;16.56;100.00;99678.84;5109879;28;20197;-72
2022/11/05 07:40:12;;;;;;;0.70;0.70;;;;;;;16.79;99.08;99689.81;5110199;28;20205;-72
2022/11/05 07:42:43;;;;;;;1.20;1.20;;;;;;;16.93;98.41;99655.53;5112098;28;20228;-72
2022/11/05 07:45:11;;;;;;;1.73;1.23;;;;;;;17.18;95.47;99690.88;5113454;28;20205;-72
2022/11/05 07:47:38;;;;;;;0.80;0.80;;;;;;;17.31;95.07;99695.00;5113584;28;20222;-72
2022/11/05 07:50:06;;;;;;;0.65;0.65;;;;;;;17.33;92.61;99688.84;5113508;28;20201;-72
2022/11/05 07:52:33;;;;;;;1.02;1.02;;;;;;;17.24;92.67;99683.78;5076980;28;20201;-72
2022/11/05 07:55:00;;;;;;;0.90;0.90;;;;;;;16.74;96.63;99686.41;5113878;28;20193;-72
2022/11/05 07:57:27;;;;;;;1.02;1.02;;;;;;;16.16;100.00;99668.09;5113366;28;20200;-72
2022/11/05 07:59:55;;;;;;;0.70;0.70;;;;;;;16.46;100.00;99690.31;5077779;28;20213;-72
2022/11/05 08:02:22;;;;;;;1.02;1.02;;;;;;;16.55;100.00;99679.72;5113099;28;20225;-72
2022/11/05 08:04:49;;;;;;;5.03;2.85;;;;;;;16.09;100.00;99607.13;5113128;28;20232;-72
2022/11/05 08:07:15;;;;;;;5.38;2.17;;;;;;;16.20;100.00;99654.06;5113083;28;20193;-72
2022/11/05 08:09:42;;;;;;;1.45;1.08;;;;;;;16.20;100.00;99673.22;5113203;28;20213;-71
2022/11/05 08:12:09;;;;;;;1.85;1.42;;;;;;;16.49;100.00;99669.31;5094766;27;20197;-73
2022/11/05 08:14:36;;;;;;;1.05;1.05;;;;;;;16.77;98.07;99665.41;5093196;28;20206;-72
2022/11/05 08:17:04;;;;;;;0.90;0.90;;;;;;;17.10;96.40;99675.28;5095028;28;20205;-73
2022/11/05 08:19:31;;;;;;;0.90;0.90;;;;;;;17.02;94.58;99671.94;5107611;28;20198;-72
2022/11/05 08:21:57;;;;;;;1.52;1.48;;;;;;;16.75;95.10;99675.03;5090282;28;20225;-73
2022/11/05 08:24:24;;;;;;;2.45;1.40;;;;;;;16.61;96.15;99643.84;5092758;28;20197;-72
2022/11/05 08:26:52;;;;;;;1.13;1.02;;;;;;;16.81;95.23;99672.31;5092883;28;20202;-73
2022/11/05 08:29:19;;;;;;;1.13;1.08;;;;;;;16.91;94.94;99680.91;5099860;28;20194;-73
2022/11/05 08:31:46;;;;;;;0.70;0.70;;;;;;;16.96;94.87;99668.56;5110807;28;20220;-73
2022/11/05 08:34:14;;;;;;;0.90;0.90;;;;;;;16.99;94.12;99681.59;5112787;28;20212;-72
2022/11/05 08:36:45;;;;;;;1.20;1.10;;;;;;;17.09;95.01;99686.66;5054540;28;20206;-73
2022/11/05 08:39:12;;;;;;;1.10;1.10;;;;;;;16.96;95.37;99679.03;5081690;28;20203;-73
2022/11/05 08:41:39;;;;;;;0.77;0.77;;;;;;;17.24;95.34;99682.91;5053274;28;20686;-73
2022/11/05 08:44:07;;;;;;;1.00;1.00;;;;;;;17.28;93.13;99668.84;5072536;28;20289;-73
2022/11/05 08:46:34;;;;;;;0.75;0.75;;;;;;;17.48;92.32;99648.34;5070927;28;20194;-74
2022/11/05 08:49:01;;;;;;;1.92;1.83;;;;;;;17.62;91.35;99682.22;5091741;28;20206;-73
2022/11/05 08:51:30;;;;;;;0.80;0.80;;;;;;;17.62;91.82;99680.44;5079302;28;20198;-73
2022/11/05 08:53:56;;;;;;;0.80;0.80;;;;;;;17.59;90.48;99656.91;5071056;28;20195;-74
2022/11/05 08:56:23;;;;;;;2.03;0.93;;;;;;;17.75;90.12;99670.56;5086838;28;20197;-73
2022/11/05 08:58:50;;;;;;;1.55;1.55;;;;;;;17.85;88.64;99677.34;5091249;28;20198;-74
2022/11/05 09:01:17;;;;;;;0.70;0.70;;;;;;;18.02;88.74;99669.97;5055428;28;20202;-74
2022/11/05 09:03:44;;;;;;;0.85;0.85;;;;;;;18.10;87.93;99675.06;5091264;28;20313;-74
2022/11/05 09:06:10;;;;;;;0.80;0.80;;;;;;;18.20;86.71;99669.56;5091381;28;20722;-74
2022/11/05 09:08:39;;;;;;;1.13;1.13;;;;;;;18.40;86.58;99686.66;5091599;28;20206;-73
2022/11/05 09:11:05;;;;;;;0.60;0.60;;;;;;;18.39;87.10;99675.28;5091662;28;20217;-74
2022/11/05 09:13:32;;;;;;;1.20;1.20;;;;;;;18.31;86.83;99680.69;5055568;28;20721;-74
2022/11/05 09:15:59;;;;;;;0.80;0.80;;;;;;;18.38;88.16;99676.16;5091475;28;20224;-74
2022/11/05 09:18:26;;;;;;;0.80;0.80;;;;;;;18.50;86.27;99672.41;5091467;28;20190;-74
2022/11/05 09:20:53;;;;;;;0.85;0.85;;;;;;;18.23;86.79;99660.75;5091222;28;20648;-74
2022/11/05 09:23:20;;;;;;;1.33;1.23;;;;;;;18.16;89.20;99670.53;5091123;28;20593;-73
2022/11/05 09:25:48;;;;;;;0.93;0.93;;;;;;;18.58;89.29;99673.13;5091154;28;20662;-72
2022/11/05 09:28:16;;;;;;;0.80;0.80;;;;;;;18.68;88.54;99666.75;5091055;28;20214;-72
2022/11/05 09:30:45;;;;;;;1.00;1.00;;;;;;;18.51;87.84;99592.78;5086851;28;20209;-74
2022/11/05 09:33:12;;;;;;;0.80;0.80;;;;;;;18.78;87.00;99631.47;5071115;28;20225;-72
2022/11/05 09:35:39;;;;;;;0.82;0.82;;;;;;;19.03;86.43;99658.84;5074389;28;20203;-73
2022/11/05 09:38:06;;;;;;;0.60;0.60;;;;;;;19.22;85.26;99664.47;5055078;28;20324;-73
2022/11/05 09:40:38;;;;;;;1.33;1.33;;;;;;;19.53;84.40;99638.22;5090843;28;20202;-73
2022/11/05 09:43:07;;;;;;;0.80;0.80;;;;;;;19.71;83.04;99653.47;5090854;28;20248;-73
2022/11/05 09:45:36;;;;;;;0.95;0.95;;;;;;;19.76;84.50;99651.59;5090733;28;20224;-73
2022/11/05 09:48:10;;;;;;;0.70;0.70;;;;;;;20.00;82.43;99648.22;5080363;28;20312;-72
2022/11/05 09:50:42;;;;;;;0.90;0.90;;;;;;;20.03;81.75;99645.50;5088048;28;20200;-73
2022/11/05 09:53:10;;;;;;;0.90;0.90;;;;;;;20.07;82.05;99643.63;5090644;28;20198;-73
2022/11/05 09:55:41;;;;;;;0.95;0.95;;;;;;;19.87;82.64;99625.78;5090761;28;20205;-73
2022/11/05 09:58:36;;;;;;;0.93;0.93;;;;;;;20.16;82.30;99638.06;5090606;28;20293;-74
2022/11/05 10:01:04;;;;;;;0.80;0.80;;;;;;;20.09;83.10;99634.78;5076235;28;20636;-73
2022/11/05 10:03:33;;;;;;;1.42;1.30;;;;;;;20.08;83.17;99643.56;5090104;28;20241;-70
2022/11/05 10:06:08;;;;;;;0.82;0.82;;;;;;;20.49;81.35;99651.97;5075357;28;20197;-73
2022/11/05 10:08:39;;;;;;;0.82;0.82;;;;;;;20.53;81.03;99648.34;5067852;28;20229;-71
2022/11/05 10:11:11;;;;;;;0.80;0.80;;;;;;;20.59;80.00;99650.78;5087691;28;20198;-71
2022/11/05 10:13:44;;;;;;;0.85;0.85;;;;;;;20.62;79.96;99645.41;5090468;28;20202;-71
2022/11/05 10:16:21;;;;;;;1.70;1.60;;;;;;;20.65;80.49;99642.69;5090051;28;20206;-72
2022/11/05 10:18:52;;;;;;;1.35;1.35;;;;;;;20.87;77.73;99635.75;5090185;28;20201;-71
2022/11/05 10:21:20;;;;;;;0.90;0.90;;;;;;;21.25;76.12;99645.91;5090111;28;20205;-71
2022/11/05 10:23:47;;;;;;;0.80;0.80;;;;;;;20.72;76.83;99625.78;5090218;28;20668;-72
2022/11/05 10:26:18;;;;;;;0.90;0.90;;;;;;;21.03;77.12;99647.53;5090094;28;20681;-72
2022/11/05 10:28:47;;;;;;;1.55;1.55;;;;;;;21.17;75.09;99645.31;5090036;28;20202;-72
2022/11/05 10:31:19;;;;;;;1.23;1.23;;;;;;;21.16;74.94;99645.34;5090000;28;20584;-72
2022/11/05 10:33:50;;;;;;;0.98;0.98;;;;;;;21.09;76.22;99628.84;5089826;28;20198;-72
2022/11/05 10:36:22;;;;;;;0.70;0.70;;;;;;;21.35;75.53;99632.38;5090338;28;20227;-72
2022/11/05 10:38:49;;;;;;;0.98;0.98;;;;;;;21.17;74.21;99624.22;5083434;28;20293;-72
2022/11/05 10:41:35;;;;;;;1.00;1.00;;;;;;;21.22;75.86;99618.78;5082645;28;20206;-74
2022/11/05 10:44:17;;;;;;;1.13;1.13;;;;;;;21.14;74.60;99616.41;5047174;28;20252;-72
2022/11/05 10:46:53;;;;;;;0.80;0.80;;;;;;;21.33;74.64;99613.13;5031679;28;20675;-73
2022/11/05 10:49:37;;;;;;;0.80;0.80;;;;;;;21.15;74.03;99604.94;5047184;28;20226;-73
2022/11/05 10:52:18;;;;;;;1.48;1.48;;;;;;;20.90;75.08;99574.22;5030257;28;20725;-73
2022/11/05 10:54:46;;;;;;;1.00;1.00;;;;;;;20.73;75.11;99544.00;5047257;28;20659;-73
2022/11/05 10:57:34;;;;;;;15.32;1.45;;;;;;;21.54;74.33;99607.06;5043214;28;20212;-72
2022/11/05 11:00:27;;;;;;;0.80;0.80;;;;;;;21.73;71.73;99601.00;5040102;28;20683;-73
2022/11/05 11:02:57;;;;;;;0.90;0.90;;;;;;;21.66;71.69;99590.75;5035670;28;20682;-72
2022/11/05 11:05:27;;;;;;;2.38;2.28;;;;;;;21.56;70.64;99584.97;5046701;28;20232;-70
2022/11/05 11:07:59;;;;;;;0.80;0.80;;;;;;;21.53;71.63;99577.16;5046823;28;20410;-73
2022/11/05 11:10:27;;;;;;;1.08;1.08;;;;;;;21.69;70.96;99596.75;5046922;28;20661;-70
2022/11/05 11:12:56;;;;;;;1.73;1.58;;;;;;;21.67;70.84;99592.47;5047091;28;20203;-69
2022/11/05 11:15:28;;;;;;;1.05;1.05;;;;;;;22.00;69.85;99593.00;5047144;28;20509;-69
2022/11/05 11:17:56;;;;;;;2.05;1.95;;;;;;;21.83;68.26;99588.31;5044567;28;20204;-70
2022/11/05 11:20:29;;;;;;;0.85;0.85;;;;;;;21.74;67.59;99584.28;5049447;28;20198;-72
2022/11/05 11:23:00;;;;;;;1.95;1.85;;;;;;;21.74;68.97;99584.28;5093168;28;20232;-71
2022/11/05 11:25:29;;;;;;;1.08;1.08;;;;;;;21.71;69.51;99583.53;5093458;28;20209;-73
2022/11/05 11:28:02;;;;;;;1.25;1.25;;;;;;;21.82;68.46;99576.06;5093179;28;20229;-71
2022/11/05 11:30:31;;;;;;;0.80;0.80;;;;;;;21.76;69.13;99560.44;5093461;28;20287;-70
2022/11/05 11:33:06;;;;;;;1.08;1.08;;;;;;;21.99;68.10;99573.66;5092953;28;20199;-70
2022/11/05 11:35:36;;;;;;;0.80;0.80;;;;;;;21.79;67.92;99576.19;5093073;28;20705;-73
2022/11/05 11:38:05;;;;;;;1.40;1.38;;;;;;;21.92;67.38;99563.38;5092782;28;20289;-72
2022/11/05 11:40:34;;;;;;;0.90;0.90;;;;;;;22.13;67.96;99568.69;5079419;28;20681;-71
2022/11/05 11:43:05;;;;;;;1.05;1.05;;;;;;;22.32;67.86;99573.22;5093077;28;20221;-71
2022/11/05 11:45:37;;;;;;;1.77;1.70;;;;;;;22.13;68.98;99567.81;5092981;28;20194;-72
2022/11/05 11:48:06;;;;;;;0.80;0.80;;;;;;;22.17;69.16;99561.50;5092973;28;20198;-72
2022/11/05 11:50:38;;;;;;;1.00;1.00;;;;;;;22.33;68.84;99570.50;5092947;28;20259;-71
2022/11/05 11:53:33;;;;;;;1.15;1.13;;;;;;;22.50;73.08;99560.13;5093015;28;20275;-73
2022/11/05 11:56:14;;;;;;;2.00;1.55;;;;;;;22.54;69.80;99566.13;5080679;28;20198;-73
2022/11/05 11:58:44;;;;;;;3.22;1.35;;;;;;;22.37;69.97;99571.22;5092593;28;20605;-71
2022/11/05 12:01:50;;;;;;;1.25;1.15;;;;;;;22.41;70.29;99570.19;5092700;28;20249;-70
2022/11/05 12:04:41;;;;;;;0.70;0.70;;;;;;;22.42;70.65;99572.78;5072504;28;20235;-71
2022/11/05 12:07:26;;;;;;;0.90;0.90;;;;;;;22.35;71.15;99570.44;5030079;28;20204;-72
2022/11/05 12:10:11;;;;;;;0.80;0.80;;;;;;;22.35;70.03;99566.03;4999453;28;20196;-71
2022/11/05 12:12:48;;;;;;;1.52;1.48;;;;;;;22.24;71.44;99563.81;5029930;28;20196;-71
2022/11/05 12:15:30;;;;;;;1.05;1.05;;;;;;;22.18;71.50;99568.50;5029959;28;20196;-71
2022/11/05 12:18:02;;;;;;;0.93;0.93;;;;;;;22.23;70.82;99548.88;5029842;28;20661;-71
2022/11/05 12:21:03;;;;;;;0.80;0.80;;;;;;;22.31;70.59;99568.84;5029984;28;20227;-71